createdAt,value
2018-03-27T00:02:21.567Z,5.47
2018-03-27T00:04:49.542Z,5.55
2018-03-27T00:07:17.608Z,6.35
2018-03-27T00:09:45.605Z,5.53
2018-03-27T00:12:13.563Z,5.93
2018-03-27T00:14:41.625Z,5.87
2018-03-27T00:17:09.521Z,5.95
2018-03-27T00:19:37.527Z,6.20
2018-03-27T00:22:05.477Z,5.65
2018-03-27T00:24:39.484Z,5.80
2018-03-27T00:27:07.364Z,5.22
2018-03-27T00:29:41.509Z,5.57
2018-03-27T00:32:15.693Z,5.53
2018-03-27T00:34:49.900Z,6.45
2018-03-27T00:37:23.960Z,5.78
2018-03-27T00:39:58.174Z,6.80
2018-03-27T00:42:42.968Z,6.10
2018-03-27T00:45:10.967Z,6.60
2018-03-27T00:47:38.951Z,5.75
2018-03-27T00:50:06.936Z,6.10
2018-03-27T00:52:34.914Z,6.20
2018-03-27T00:55:02.932Z,5.68
2018-03-27T00:57:30.937Z,6.57
2018-03-27T00:59:58.944Z,5.85
2018-03-27T01:02:26.947Z,6.32
2018-03-27T01:04:54.937Z,5.97
2018-03-27T01:07:22.887Z,5.87
2018-03-27T01:09:50.849Z,6.72
2018-03-27T01:12:18.819Z,6.43
2018-03-27T01:14:46.800Z,5.25
2018-03-27T01:17:14.821Z,6.45
2018-03-27T01:19:42.808Z,5.28
2018-03-27T01:22:10.788Z,5.78
2018-03-27T01:24:38.781Z,6.20
2018-03-27T01:27:06.744Z,5.12
2018-03-27T01:29:34.737Z,5.95
2018-03-27T01:32:02.753Z,6.60
2018-03-27T01:34:30.740Z,6.15
2018-03-27T01:36:58.710Z,6.05
2018-03-27T01:39:26.728Z,6.30
2018-03-27T01:41:54.747Z,6.45
2018-03-27T01:44:22.749Z,5.50
2018-03-27T01:46:50.732Z,6.20
2018-03-27T01:49:18.728Z,6.40
2018-03-27T01:51:46.720Z,6.22
2018-03-27T01:54:14.736Z,6.45
2018-03-27T01:56:42.768Z,6.00
2018-03-27T01:59:10.725Z,6.47
2018-03-27T02:01:38.732Z,6.10
2018-03-27T02:04:06.716Z,6.78
2018-03-27T02:06:34.704Z,6.70
2018-03-27T02:09:02.705Z,5.80
2018-03-27T02:11:36.845Z,5.75
2018-03-27T02:14:10.913Z,6.28
2018-03-27T02:16:44.948Z,7.07
2018-03-27T02:19:19.386Z,6.12
2018-03-27T02:21:47.335Z,6.03
2018-03-27T02:24:18.284Z,5.87
2018-03-27T02:26:46.255Z,6.65
2018-03-27T02:29:14.225Z,6.40
2018-03-27T02:31:42.228Z,5.43
2018-03-27T02:34:10.228Z,6.35
2018-03-27T02:36:38.200Z,6.43
2018-03-27T02:39:06.193Z,5.80
2018-03-27T02:41:34.161Z,6.65
2018-03-27T02:44:02.152Z,7.60
2018-03-27T02:46:30.134Z,6.25
2018-03-27T02:48:58.094Z,6.80
2018-03-27T02:51:26.072Z,6.22
2018-03-27T02:53:55.124Z,6.22
2018-03-27T02:56:23.113Z,6.12
2018-03-27T02:58:51.088Z,6.70
2018-03-27T03:01:19.389Z,6.07
2018-03-27T03:03:47.385Z,5.70
2018-03-27T03:06:15.328Z,5.82
2018-03-27T03:08:43.352Z,5.93
2018-03-27T03:11:13.412Z,6.05
2018-03-27T03:13:41.368Z,6.10
2018-03-27T03:16:09.360Z,5.28
2018-03-27T03:18:37.371Z,5.93
2018-03-27T03:21:05.327Z,5.75
2018-03-27T03:23:33.304Z,5.78
2018-03-27T03:26:01.296Z,6.03
2018-03-27T03:28:29.307Z,6.60
2018-03-27T03:30:57.360Z,5.28
2018-03-27T03:33:25.385Z,5.47
2018-03-27T03:35:53.360Z,5.55
2018-03-27T03:38:21.351Z,5.25
2018-03-27T03:40:49.320Z,5.57
2018-03-27T03:43:17.296Z,5.50
2018-03-27T03:45:45.280Z,4.97
2018-03-27T03:48:13.248Z,6.70
2018-03-27T03:50:41.253Z,6.97
2018-03-27T03:53:09.285Z,5.25
2018-03-27T03:55:37.202Z,6.10
2018-03-27T03:58:05.151Z,5.87
2018-03-27T04:00:33.163Z,6.00
2018-03-27T04:03:01.172Z,5.50
2018-03-27T04:05:29.147Z,5.45
2018-03-27T04:07:57.136Z,5.87
2018-03-27T04:10:25.094Z,6.40
2018-03-27T04:12:53.049Z,5.82
2018-03-27T04:15:21.083Z,5.43
2018-03-27T04:17:49.036Z,5.57
2018-03-27T04:20:17.028Z,6.72
2018-03-27T04:22:45.020Z,6.25
2018-03-27T04:25:12.988Z,5.87
2018-03-27T04:27:40.963Z,6.85
2018-03-27T04:30:08.944Z,6.10
2018-03-27T04:32:36.904Z,5.85
2018-03-27T04:35:04.860Z,6.30
2018-03-27T04:37:32.866Z,6.03
2018-03-27T04:40:00.868Z,6.85
2018-03-27T04:42:28.875Z,6.85
2018-03-27T04:44:56.902Z,7.60
2018-03-27T04:47:24.848Z,7.40
2018-03-27T04:49:52.821Z,7.32
2018-03-27T04:52:20.831Z,7.28
2018-03-27T04:54:48.808Z,6.45
2018-03-27T04:57:16.812Z,7.20
2018-03-27T04:59:44.816Z,6.93
2018-03-27T05:02:12.808Z,6.80
2018-03-27T05:04:40.812Z,6.72
2018-03-27T05:07:08.819Z,6.82
2018-03-27T05:09:36.792Z,7.00
2018-03-27T05:12:04.832Z,7.28
2018-03-27T05:14:32.764Z,7.90
2018-03-27T05:17:00.742Z,7.53
2018-03-27T05:19:28.771Z,6.18
2018-03-27T05:21:56.763Z,7.57
2018-03-27T05:24:26.790Z,7.00
2018-03-27T05:26:54.788Z,7.05
2018-03-27T05:29:22.759Z,7.65
2018-03-27T05:31:50.757Z,7.40
2018-03-27T05:34:18.731Z,6.15
2018-03-27T05:36:46.796Z,6.72
2018-03-27T05:39:14.750Z,7.90
2018-03-27T05:41:42.769Z,7.40
2018-03-27T05:44:10.775Z,5.93
2018-03-27T05:46:38.849Z,6.60
2018-03-27T05:49:06.805Z,8.05
2018-03-27T05:51:34.813Z,7.40
2018-03-27T05:54:02.788Z,7.40
2018-03-27T05:56:30.760Z,7.40
2018-03-27T05:58:58.764Z,7.35
2018-03-27T06:01:26.728Z,8.15
2018-03-27T06:03:54.710Z,6.85
2018-03-27T06:06:22.692Z,7.43
2018-03-27T06:08:50.669Z,6.05
2018-03-27T06:11:19.776Z,6.15
2018-03-27T06:13:48.897Z,7.07
2018-03-27T06:16:16.864Z,7.37
2018-03-27T06:18:44.851Z,9.82
2018-03-27T06:21:12.824Z,8.25
2018-03-27T06:23:40.792Z,8.55
2018-03-27T06:26:08.774Z,8.10
2018-03-27T06:28:36.775Z,8.25
2018-03-27T06:31:04.744Z,7.40
2018-03-27T06:33:32.712Z,9.77
2018-03-27T06:36:00.689Z,8.65
2018-03-27T06:38:28.720Z,9.80
2018-03-27T06:40:56.684Z,8.68
2018-03-27T06:43:24.672Z,9.40
2018-03-27T06:45:52.672Z,10.30
2018-03-27T06:48:20.648Z,10.23
2018-03-27T06:50:48.615Z,9.68
2018-03-27T06:53:16.631Z,9.13
2018-03-27T06:55:44.581Z,9.18
2018-03-27T06:58:12.543Z,9.75
2018-03-27T07:00:40.484Z,9.88
2018-03-27T07:03:08.443Z,8.82
2018-03-27T07:05:36.500Z,8.20
2018-03-27T07:08:04.521Z,9.50
2018-03-27T07:10:32.532Z,10.10
2018-03-27T07:13:00.512Z,8.45
2018-03-27T07:15:28.495Z,7.85
2018-03-27T07:17:56.490Z,8.70
2018-03-27T07:20:24.471Z,8.82
2018-03-27T07:22:52.422Z,8.30
2018-03-27T07:25:20.474Z,8.43
2018-03-27T07:27:48.505Z,7.90
2018-03-27T07:30:16.444Z,8.20
2018-03-27T07:32:44.436Z,7.55
2018-03-27T07:35:12.425Z,7.62
2018-03-27T07:37:40.400Z,8.02
2018-03-27T07:40:08.408Z,8.85
2018-03-27T07:42:36.367Z,8.02
2018-03-27T07:45:04.337Z,8.88
2018-03-27T07:47:32.304Z,7.55
2018-03-27T07:50:00.311Z,8.40
2018-03-27T07:52:28.277Z,8.48
2018-03-27T07:54:56.256Z,8.40
2018-03-27T07:57:24.256Z,8.80
2018-03-27T07:59:52.244Z,7.03
2018-03-27T08:02:20.269Z,9.40
2018-03-27T08:04:48.243Z,9.63
2018-03-27T08:07:16.257Z,9.13
2018-03-27T08:09:45.285Z,9.93
2018-03-27T08:12:13.304Z,9.13
2018-03-27T08:14:41.245Z,9.15
2018-03-27T08:17:09.213Z,9.88
2018-03-27T08:19:37.200Z,10.25
2018-03-27T08:22:05.196Z,8.35
2018-03-27T08:24:33.181Z,8.90
2018-03-27T08:27:01.167Z,8.95
2018-03-27T08:29:29.157Z,8.90
2018-03-27T08:31:57.141Z,7.95
2018-03-27T08:34:25.161Z,8.48
2018-03-27T08:36:53.172Z,8.80
2018-03-27T08:39:21.162Z,9.27
2018-03-27T08:41:49.172Z,8.87
2018-03-27T08:44:17.164Z,9.60
2018-03-27T08:46:45.136Z,10.10
2018-03-27T08:49:13.134Z,8.83
2018-03-27T08:51:41.118Z,9.50
2018-03-27T08:54:09.112Z,9.37
2018-03-27T08:56:37.180Z,10.17
2018-03-27T08:59:05.168Z,10.00
2018-03-27T09:01:33.188Z,8.13
2018-03-27T09:04:01.185Z,9.07
2018-03-27T09:06:29.166Z,8.47
2018-03-27T09:08:57.152Z,9.33
2018-03-27T09:11:25.161Z,8.80
2018-03-27T09:13:53.140Z,9.03
2018-03-27T09:16:21.132Z,9.53
2018-03-27T09:18:49.467Z,9.80
2018-03-27T09:21:17.448Z,9.30
2018-03-27T09:23:45.410Z,10.27
2018-03-27T09:26:13.452Z,8.63
2018-03-27T09:28:41.442Z,8.70
2018-03-27T09:31:09.383Z,8.80
2018-03-27T09:33:37.396Z,9.20
2018-03-27T09:36:05.346Z,10.40
2018-03-27T09:38:33.318Z,10.03
2018-03-27T09:41:02.294Z,9.53
2018-03-27T09:43:30.321Z,9.17
2018-03-27T09:45:58.313Z,9.40
2018-03-27T09:48:26.337Z,9.03
2018-03-27T09:50:54.406Z,9.00
2018-03-27T09:53:22.358Z,10.20
2018-03-27T09:55:50.348Z,9.30
2018-03-27T09:58:18.338Z,8.93
2018-03-27T10:00:50.788Z,9.73
2018-03-27T10:03:18.781Z,9.63
2018-03-27T10:05:46.765Z,10.53
2018-03-27T10:08:14.764Z,8.80
2018-03-27T10:10:43.872Z,12.03
2018-03-27T10:13:12.619Z,9.13
2018-03-27T10:15:41.222Z,10.10
2018-03-27T10:18:09.277Z,9.50
2018-03-27T10:20:38.438Z,10.00
2018-03-27T10:23:06.397Z,9.73
2018-03-27T10:25:35.172Z,10.00
2018-03-27T10:28:03.197Z,10.33
2018-03-27T10:30:31.204Z,10.67
2018-03-27T10:33:00.258Z,11.10
2018-03-27T10:35:28.226Z,11.07
2018-03-27T10:37:56.203Z,11.70
2018-03-27T10:40:24.233Z,11.70
2018-03-27T10:42:52.237Z,9.90
2018-03-27T10:45:20.180Z,9.40
2018-03-27T10:47:48.160Z,11.27
2018-03-27T10:50:16.155Z,10.90
2018-03-27T10:52:44.124Z,11.37
2018-03-27T10:55:12.141Z,11.53
2018-03-27T10:57:40.152Z,11.87
2018-03-27T11:00:08.120Z,12.13
2018-03-27T11:02:36.117Z,13.30
2018-03-27T11:05:04.063Z,12.60
2018-03-27T11:07:32.040Z,12.33
2018-03-27T11:10:00.075Z,12.60
2018-03-27T11:12:28.028Z,12.37
2018-03-27T11:14:56.048Z,12.00
2018-03-27T11:17:24.046Z,12.93
2018-03-27T11:19:52.038Z,13.40
2018-03-27T11:22:20.032Z,14.27
2018-03-27T11:24:48.039Z,13.67
2018-03-27T11:27:16.027Z,13.43
2018-03-27T11:29:44.013Z,13.87
2018-03-27T11:32:12.033Z,13.50
2018-03-27T11:34:40.004Z,11.93
2018-03-27T11:37:08.005Z,14.40
2018-03-27T11:39:36.021Z,13.30
2018-03-27T11:42:03.992Z,15.53
2018-03-27T11:44:32.024Z,14.03
2018-03-27T11:47:00.022Z,12.23
2018-03-27T11:49:27.976Z,13.60
2018-03-27T11:51:55.952Z,13.23
2018-03-27T11:54:23.974Z,12.27
2018-03-27T11:56:51.953Z,14.00
2018-03-27T11:59:19.944Z,13.37
2018-03-27T12:01:48.964Z,14.07
2018-03-27T12:04:16.981Z,13.63
2018-03-27T12:06:44.960Z,14.90
2018-03-27T12:09:12.989Z,14.53
2018-03-27T12:11:41.000Z,14.03
2018-03-27T12:14:08.972Z,13.63
2018-03-27T12:16:36.947Z,13.53
2018-03-27T12:19:04.950Z,15.00
2018-03-27T12:21:32.920Z,13.00
2018-03-27T12:24:00.871Z,12.37
2018-03-27T12:26:28.848Z,12.90
2018-03-27T12:28:56.800Z,14.63
2018-03-27T12:31:24.795Z,13.77
2018-03-27T12:33:52.788Z,15.10
2018-03-27T12:36:20.764Z,15.90
2018-03-27T12:38:48.780Z,16.50
2018-03-27T12:41:16.736Z,17.67
2018-03-27T12:43:44.722Z,21.20
2018-03-27T12:46:12.724Z,16.33
2018-03-27T12:48:40.720Z,15.03
2018-03-27T12:51:08.720Z,15.23
2018-03-27T12:53:36.708Z,15.03
2018-03-27T12:56:04.660Z,16.33
2018-03-27T12:58:32.630Z,17.03
2018-03-27T13:01:00.610Z,15.47
2018-03-27T13:03:29.628Z,15.73
2018-03-27T13:05:57.600Z,15.27
2018-03-27T13:08:25.584Z,15.07
2018-03-27T13:10:53.570Z,14.97
2018-03-27T13:13:21.576Z,14.20
2018-03-27T13:15:50.559Z,13.57
2018-03-27T13:18:18.508Z,13.27
2018-03-27T13:20:46.509Z,14.07
2018-03-27T13:23:14.504Z,14.07
2018-03-27T13:25:43.493Z,14.20
2018-03-27T13:28:11.504Z,16.13
2018-03-27T13:30:39.509Z,14.50
2018-03-27T13:33:07.562Z,15.20
2018-03-27T13:35:35.606Z,13.50
2018-03-27T13:38:03.739Z,16.60
2018-03-27T13:40:31.787Z,13.90
2018-03-27T13:42:59.830Z,15.97
2018-03-27T13:45:27.947Z,15.03
2018-03-27T13:47:55.968Z,16.37
2018-03-27T13:50:23.984Z,14.50
2018-03-27T13:52:52.089Z,15.03
2018-03-27T13:55:20.084Z,14.00
2018-03-27T13:57:48.134Z,14.83
2018-03-27T14:00:16.260Z,15.10
2018-03-27T14:02:44.341Z,15.47
2018-03-27T14:05:12.425Z,14.70
2018-03-27T14:07:40.502Z,15.07
2018-03-27T14:10:09.576Z,18.80
2018-03-27T14:12:37.547Z,16.80
2018-03-27T14:15:05.713Z,17.67
2018-03-27T14:17:33.897Z,18.62
2018-03-27T14:20:02.130Z,19.90
2018-03-27T14:22:30.148Z,17.50
2018-03-27T14:24:58.152Z,21.12
2018-03-27T14:27:26.169Z,18.62
2018-03-27T14:29:54.153Z,18.58
2018-03-27T14:32:22.176Z,19.55
2018-03-27T14:34:50.168Z,19.12
2018-03-27T14:37:18.250Z,19.17
2018-03-27T14:39:46.358Z,20.15
2018-03-27T14:42:14.343Z,20.37
2018-03-27T14:44:42.403Z,19.90
2018-03-27T14:47:10.368Z,19.98
2018-03-27T14:49:38.360Z,19.48
2018-03-27T14:52:06.404Z,21.48
2018-03-27T14:54:34.389Z,19.40
2018-03-27T14:57:02.397Z,18.55
2018-03-27T14:59:30.388Z,20.65
2018-03-27T15:01:58.356Z,21.13
2018-03-27T15:04:26.383Z,22.70
2018-03-27T15:06:54.406Z,21.10
2018-03-27T15:09:22.380Z,20.75
2018-03-27T15:11:50.424Z,21.23
2018-03-27T15:14:18.675Z,21.92
2018-03-27T15:16:47.336Z,21.20
2018-03-27T15:19:15.323Z,20.77
2018-03-27T15:21:43.373Z,21.20
2018-03-27T15:24:11.344Z,20.52
2018-03-27T15:26:39.314Z,20.07
2018-03-27T15:29:07.324Z,21.80
2018-03-27T15:31:35.331Z,20.73
2018-03-27T15:34:03.299Z,19.97
2018-03-27T15:36:31.320Z,21.00
2018-03-27T15:38:59.286Z,18.97
2018-03-27T15:41:27.305Z,20.33
2018-03-27T15:43:55.333Z,18.73
2018-03-27T15:46:23.287Z,20.23
2018-03-27T15:48:51.305Z,20.77
2018-03-27T15:51:19.326Z,18.53
2018-03-27T15:53:47.356Z,18.83
2018-03-27T15:56:15.340Z,17.23
2018-03-27T15:58:43.351Z,16.03
2018-03-27T16:01:11.348Z,16.27
2018-03-27T16:03:39.355Z,16.60
2018-03-27T16:06:07.372Z,16.50
2018-03-27T16:08:35.342Z,15.40
2018-03-27T16:11:03.304Z,17.27
2018-03-27T16:13:31.325Z,15.57
2018-03-27T16:15:59.318Z,17.20
2018-03-27T16:18:27.317Z,16.15
2018-03-27T16:20:56.341Z,15.75
2018-03-27T16:23:24.300Z,16.83
2018-03-27T16:25:52.292Z,15.15
2018-03-27T16:28:20.289Z,14.57
2018-03-27T16:30:48.348Z,15.80
2018-03-27T16:33:16.328Z,15.45
2018-03-27T16:35:44.371Z,16.05
2018-03-27T16:38:12.404Z,17.62
2018-03-27T16:40:40.377Z,14.48
2018-03-27T16:43:08.392Z,14.95
2018-03-27T16:45:36.392Z,16.83
2018-03-27T16:48:04.420Z,17.50
2018-03-27T16:50:32.456Z,18.25
2018-03-27T16:53:00.444Z,15.57
2018-03-27T16:55:28.403Z,14.95
2018-03-27T16:57:56.437Z,12.00
2018-03-27T17:00:25.540Z,12.95
2018-03-27T17:02:53.500Z,13.43
2018-03-27T17:05:21.469Z,15.75
2018-03-27T17:07:49.494Z,13.80
2018-03-27T17:10:17.499Z,15.32
2018-03-27T17:12:45.465Z,15.93
2018-03-27T17:15:13.431Z,14.43
2018-03-27T17:17:41.516Z,15.82
2018-03-27T17:20:09.514Z,15.10
2018-03-27T17:22:37.510Z,14.60
2018-03-27T17:25:05.468Z,16.80
2018-03-27T17:27:34.347Z,18.12
2018-03-27T17:30:02.340Z,17.00
2018-03-27T17:32:30.325Z,17.87
2018-03-27T17:34:58.421Z,17.83
2018-03-27T17:37:26.437Z,21.27
2018-03-27T17:39:54.512Z,17.30
2018-03-27T17:42:23.539Z,18.70
2018-03-27T17:44:51.546Z,18.25
2018-03-27T17:47:19.549Z,18.02
2018-03-27T17:49:47.532Z,19.98
2018-03-27T17:52:15.505Z,20.05
2018-03-27T17:54:43.492Z,19.30
2018-03-27T17:57:11.503Z,16.37
2018-03-27T17:59:39.512Z,15.68
2018-03-27T18:02:07.564Z,18.87
2018-03-27T18:04:35.564Z,18.50
2018-03-27T18:07:03.628Z,20.05
2018-03-27T18:09:31.624Z,19.37
2018-03-27T18:11:59.596Z,18.65
2018-03-27T18:14:27.576Z,18.23
2018-03-27T18:16:55.556Z,19.23
2018-03-27T18:19:23.547Z,19.52
2018-03-27T18:21:51.488Z,19.33
2018-03-27T18:24:19.480Z,20.90
2018-03-27T18:26:47.468Z,19.83
2018-03-27T18:29:15.448Z,20.10
2018-03-27T18:31:43.416Z,20.02
2018-03-27T18:34:11.441Z,20.33
2018-03-27T18:36:39.473Z,18.70
2018-03-27T18:39:07.557Z,20.00
2018-03-27T18:41:35.560Z,20.50
2018-03-27T18:44:03.557Z,19.50
2018-03-27T18:46:31.532Z,17.92
2018-03-27T18:48:59.528Z,22.00
2018-03-27T18:51:27.504Z,20.85
2018-03-27T18:53:55.484Z,19.00
2018-03-27T18:56:23.500Z,20.50
2018-03-27T18:58:51.508Z,19.67
2018-03-27T19:01:19.572Z,19.87
2018-03-27T19:03:47.585Z,20.35
2018-03-27T19:06:15.616Z,20.33
2018-03-27T19:08:43.961Z,20.23
2018-03-27T19:11:11.978Z,20.60
2018-03-27T19:13:39.984Z,23.87
2018-03-27T19:16:07.964Z,20.15
2018-03-27T19:18:35.969Z,19.48
2018-03-27T19:21:03.969Z,19.05
2018-03-27T19:23:31.944Z,20.70
2018-03-27T19:25:59.968Z,21.35
2018-03-27T19:28:27.992Z,22.60
2018-03-27T19:30:56.050Z,21.52
2018-03-27T19:33:25.062Z,21.77
2018-03-27T19:35:53.068Z,21.33
2018-03-27T19:38:21.088Z,21.85
2018-03-27T19:40:49.065Z,23.50
2018-03-27T19:43:17.062Z,20.90
2018-03-27T19:45:45.103Z,24.15
2018-03-27T19:48:13.112Z,25.20
2018-03-27T19:50:41.120Z,22.08
2018-03-27T19:53:09.124Z,21.35
2018-03-27T19:55:37.115Z,24.65
2018-03-27T19:58:05.098Z,21.23
2018-03-27T20:00:33.092Z,19.42
2018-03-27T20:03:01.084Z,22.90
2018-03-27T20:05:29.062Z,22.90
2018-03-27T20:07:57.080Z,23.00
2018-03-27T20:10:25.096Z,23.00
2018-03-27T20:12:53.109Z,22.23
2018-03-27T20:15:21.138Z,19.70
2018-03-27T20:17:49.199Z,23.52
2018-03-27T20:20:17.123Z,20.60
2018-03-27T20:22:45.106Z,23.35
2018-03-27T20:25:13.095Z,23.05
2018-03-27T20:27:41.048Z,23.87
2018-03-27T20:30:09.037Z,25.15
2018-03-27T20:32:37.044Z,24.25
2018-03-27T20:35:05.025Z,24.35
2018-03-27T20:37:33.037Z,23.95
2018-03-27T20:40:01.011Z,26.70
2018-03-27T20:42:28.994Z,25.83
2018-03-27T20:44:56.984Z,24.52
2018-03-27T20:47:25.072Z,22.30
2018-03-27T20:49:53.077Z,24.50
2018-03-27T20:52:21.021Z,21.25
2018-03-27T20:54:49.018Z,26.12
2018-03-27T20:57:16.988Z,24.67
2018-03-27T20:59:44.995Z,24.83
2018-03-27T21:02:12.979Z,23.45
2018-03-27T21:04:41.007Z,23.55
2018-03-27T21:07:09.024Z,25.37
2018-03-27T21:09:37.198Z,24.30
2018-03-27T21:12:05.235Z,24.50
2018-03-27T21:14:33.197Z,28.62
2018-03-27T21:17:01.233Z,26.23
2018-03-27T21:19:29.199Z,27.10
2018-03-27T21:21:57.179Z,25.60
2018-03-27T21:24:25.186Z,24.10
2018-03-27T21:26:53.176Z,27.50
2018-03-27T21:29:21.139Z,25.00
2018-03-27T21:31:49.129Z,26.30
2018-03-27T21:34:17.132Z,26.73
2018-03-27T21:36:45.082Z,27.83
2018-03-27T21:39:13.069Z,23.48
2018-03-27T21:41:41.076Z,24.37
2018-03-27T21:44:09.172Z,26.60
2018-03-27T21:46:37.204Z,24.30
2018-03-27T21:49:05.225Z,24.58
2018-03-27T21:51:33.279Z,24.60
2018-03-27T21:54:02.347Z,23.25
2018-03-27T21:56:30.321Z,25.20
2018-03-27T21:58:58.344Z,25.15
2018-03-27T22:01:26.334Z,22.73
2018-03-27T22:03:54.316Z,22.35
2018-03-27T22:06:24.203Z,22.62
2018-03-27T22:08:52.176Z,26.30
2018-03-27T22:11:20.144Z,22.02
2018-03-27T22:13:48.112Z,25.00
2018-03-27T22:16:16.082Z,24.48
2018-03-27T22:18:45.176Z,24.12
2018-03-27T22:21:13.128Z,24.73
2018-03-27T22:23:41.105Z,21.80
2018-03-27T22:26:10.126Z,22.83
2018-03-27T22:28:38.112Z,23.87
2018-03-27T22:31:06.132Z,23.67
2018-03-27T22:33:34.124Z,24.45
2018-03-27T22:36:02.144Z,23.23
2018-03-27T22:38:30.136Z,21.62
2018-03-27T22:40:58.128Z,20.05
2018-03-27T22:43:26.097Z,21.23
2018-03-27T22:45:54.089Z,21.48
2018-03-27T22:48:22.049Z,23.48
2018-03-27T22:50:50.004Z,22.95
2018-03-27T22:53:17.996Z,21.12
2018-03-27T22:55:45.978Z,21.05
2018-03-27T22:58:13.999Z,22.02
2018-03-27T23:00:42.008Z,22.37
2018-03-27T23:03:11.073Z,20.02
2018-03-27T23:05:39.030Z,23.10
2018-03-27T23:08:07.060Z,23.45
2018-03-27T23:10:35.017Z,22.60
2018-03-27T23:13:03.992Z,21.83
2018-03-27T23:15:32.143Z,21.73
2018-03-27T23:18:00.378Z,21.17
2018-03-27T23:20:28.679Z,20.60
2018-03-27T23:22:56.987Z,19.70
2018-03-27T23:25:25.249Z,20.27
2018-03-27T23:27:54.457Z,19.40
2018-03-27T23:30:22.580Z,19.52
2018-03-27T23:32:50.571Z,19.83
2018-03-27T23:35:18.557Z,19.50
2018-03-27T23:37:46.576Z,19.50
2018-03-27T23:40:14.567Z,19.10
2018-03-27T23:42:42.565Z,19.50
2018-03-27T23:45:10.545Z,18.73
2018-03-27T23:47:38.522Z,18.35
2018-03-27T23:50:06.479Z,19.00
2018-03-27T23:52:34.448Z,18.85
2018-03-27T23:55:02.466Z,18.40
2018-03-27T23:57:30.427Z,19.83
2018-03-27T23:59:58.391Z,18.40
